sensor_id;sensor_type;location;lat;lon;timestamp;pressure;altitude;pressure_sealevel;temperature;humidity
36454;BME280;22478;51.740;-1.314;2023-06-14T00:00:44;100426.74;;;10.11;86.34
36454;BME280;22478;51.740;-1.314;2023-06-14T00:03:12;100425.35;;;9.52;88.54
36454;BME280;22478;51.740;-1.314;2023-06-14T00:05:38;100423.61;;;10.47;88.00
36454;BME280;22478;51.740;-1.314;2023-06-14T00:08:06;100428.58;;;8.84;93.09
36454;BME280;22478;51.740;-1.314;2023-06-14T00:10:34;100423.01;;;11.14;80.53
36454;BME280;22478;51.740;-1.314;2023-06-14T00:13:01;100430.94;;;9.21;86.99
36454;BME280;22478;51.740;-1.314;2023-06-14T00:15:28;100425.22;;;10.08;82.94
36454;BME280;22478;51.740;-1.314;2023-06-14T00:17:56;100431.60;;;8.92;91.41
36454;BME280;22478;51.740;-1.314;2023-06-14T00:20:23;100433.13;;;8.73;91.47
36454;BME280;22478;51.740;-1.314;2023-06-14T00:22:49;100435.38;;;7.06;98.88
36454;BME280;22478;51.740;-1.314;2023-06-14T00:25:17;100441.93;;;8.12;96.89
36454;BME280;22478;51.740;-1.314;2023-06-14T00:27:44;100441.52;;;9.03;95.34
36454;BME280;22478;51.740;-1.314;2023-06-14T00:30:12;100441.83;;;9.52;89.80
36454;BME280;22478;51.740;-1.314;2023-06-14T00:32:39;100447.60;;;8.43;95.89
36454;BME280;22478;51.740;-1.314;2023-06-14T00:35:07;100446.02;;;7.14;100.00
36454;BME280;22478;51.740;-1.314;2023-06-14T00:37:34;100444.78;;;9.37;94.53
36454;BME280;22478;51.740;-1.314;2023-06-14T00:40:02;100448.82;;;8.60;100.00
36454;BME280;22478;51.740;-1.314;2023-06-14T00:42:29;100446.82;;;7.88;100.00
36454;BME280;22478;51.740;-1.314;2023-06-14T00:44:56;100455.49;;;8.46;99.12
36454;BME280;22478;51.740;-1.314;2023-06-14T00:47:24;100453.66;;;7.96;100.00
36454;BME280;22478;51.740;-1.314;2023-06-14T00:49:53;100457.15;;;7.81;100.00
36454;BME280;22478;51.740;-1.314;2023-06-14T00:52:21;100469.46;;;5.65;100.00
36454;BME280;22478;51.740;-1.314;2023-06-14T00:54:49;100467.55;;;6.27;100.00
36454;BME280;22478;51.740;-1.314;2023-06-14T00:57:17;100470.83;;;6.03;100.00
36454;BME280;22478;51.740;-1.314;2023-06-14T00:59:46;100462.49;;;6.48;100.00
36454;BME280;22478;51.740;-1.314;2023-06-14T01:02:15;100464.66;;;7.60;100.00
36454;BME280;22478;51.740;-1.314;2023-06-14T01:04:44;100464.83;;;5.68;100.00
36454;BME280;22478;51.740;-1.314;2023-06-14T01:07:18;100468.63;;;6.31;100.00
36454;BME280;22478;51.740;-1.314;2023-06-14T01:09:55;100471.18;;;5.91;100.00
36454;BME280;22478;51.740;-1.314;2023-06-14T01:12:32;100476.26;;;5.71;100.00
36454;BME280;22478;51.740;-1.314;2023-06-14T01:15:02;100471.97;;;5.85;100.00
36454;BME280;22478;51.740;-1.314;2023-06-14T01:17:30;100475.94;;;5.66;100.00
36454;BME280;22478;51.740;-1.314;2023-06-14T01:19:58;100473.39;;;6.59;100.00
36454;BME280;22478;51.740;-1.314;2023-06-14T01:22:26;100478.61;;;5.46;100.00
36454;BME280;22478;51.740;-1.314;2023-06-14T01:24:53;100477.82;;;4.95;100.00
36454;BME280;22478;51.740;-1.314;2023-06-14T01:27:22;100466.56;;;6.49;100.00
36454;BME280;22478;51.740;-1.314;2023-06-14T01:29:50;100464.67;;;6.42;100.00
36454;BME280;22478;51.740;-1.314;2023-06-14T01:32:18;100477.23;;;5.69;100.00
36454;BME280;22478;51.740;-1.314;2023-06-14T01:34:45;100477.21;;;5.70;100.00
36454;BME280;22478;51.740;-1.314;2023-06-14T01:37:13;100481.11;;;5.54;100.00
36454;BME280;22478;51.740;-1.314;2023-06-14T01:39:42;100477.01;;;4.75;100.00
36454;BME280;22478;51.740;-1.314;2023-06-14T01:42:11;100477.70;;;4.30;100.00
36454;BME280;22478;51.740;-1.314;2023-06-14T01:44:41;100475.88;;;5.09;100.00
36454;BME280;22478;51.740;-1.314;2023-06-14T01:47:09;100475.92;;;4.69;100.00
36454;BME280;22478;51.740;-1.314;2023-06-14T01:49:38;100476.03;;;5.60;100.00
36454;BME280;22478;51.740;-1.314;2023-06-14T01:52:06;100479.48;;;5.01;100.00
36454;BME280;22478;51.740;-1.314;2023-06-14T01:54:33;100481.84;;;4.27;100.00
36454;BME280;22478;51.740;-1.314;2023-06-14T01:57:01;100480.54;;;4.56;100.00
36454;BME280;22478;51.740;-1.314;2023-06-14T01:59:28;100479.23;;;4.00;100.00
36454;BME280;22478;51.740;-1.314;2023-06-14T02:01:55;100473.83;;;5.28;100.00
36454;BME280;22478;51.740;-1.314;2023-06-14T02:04:22;100475.35;;;3.64;100.00
36454;BME280;22478;51.740;-1.314;2023-06-14T02:06:49;100466.86;;;6.01;100.00
36454;BME280;22478;51.740;-1.314;2023-06-14T02:09:17;100473.68;;;4.10;100.00
36454;BME280;22478;51.740;-1.314;2023-06-14T02:11:44;100474.99;;;3.30;100.00
36454;BME280;22478;51.740;-1.314;2023-06-14T02:14:11;100473.61;;;4.17;100.00
36454;BME280;22478;51.740;-1.314;2023-06-14T02:16:38;100473.50;;;4.20;100.00
36454;BME280;22478;51.740;-1.314;2023-06-14T02:19:06;100473.34;;;4.15;100.00
36454;BME280;22478;51.740;-1.314;2023-06-14T02:21:33;100475.15;;;4.49;100.00
36454;BME280;22478;51.740;-1.314;2023-06-14T02:24:00;100472.18;;;5.48;100.00
36454;BME280;22478;51.740;-1.314;2023-06-14T02:26:27;100472.25;;;4.12;100.00
36454;BME280;22478;51.740;-1.314;2023-06-14T02:28:55;100474.39;;;4.70;100.00
36454;BME280;22478;51.740;-1.314;2023-06-14T02:31:22;100468.67;;;5.29;100.00
36454;BME280;22478;51.740;-1.314;2023-06-14T02:33:50;100468.29;;;3.89;100.00
36454;BME280;22478;51.740;-1.314;2023-06-14T02:36:17;100457.85;;;3.31;100.00
36454;BME280;22478;51.740;-1.314;2023-06-14T02:38:45;100447.89;;;5.34;100.00
36454;BME280;22478;51.740;-1.314;2023-06-14T02:41:12;100454.99;;;5.64;100.00
36454;BME280;22478;51.740;-1.314;2023-06-14T02:43:39;100456.05;;;4.40;100.00
36454;BME280;22478;51.740;-1.314;2023-06-14T02:46:07;100451.71;;;5.58;100.00
36454;BME280;22478;51.740;-1.314;2023-06-14T02:48:34;100443.71;;;7.31;100.00
36454;BME280;22478;51.740;-1.314;2023-06-14T02:51:02;100448.97;;;4.93;100.00
36454;BME280;22478;51.740;-1.314;2023-06-14T02:53:29;100449.11;;;6.04;100.00
36454;BME280;22478;51.740;-1.314;2023-06-14T02:55:57;100452.19;;;5.61;100.00
36454;BME280;22478;51.740;-1.314;2023-06-14T02:58:24;100460.52;;;4.73;100.00
36454;BME280;22478;51.740;-1.314;2023-06-14T03:00:51;100451.90;;;6.10;100.00
36454;BME280;22478;51.740;-1.314;2023-06-14T03:03:19;100460.72;;;5.19;100.00
36454;BME280;22478;51.740;-1.314;2023-06-14T03:05:47;100457.62;;;6.63;100.00
36454;BME280;22478;51.740;-1.314;2023-06-14T03:08:15;100452.55;;;8.01;100.00
36454;BME280;22478;51.740;-1.314;2023-06-14T03:10:42;100457.65;;;7.24;100.00
36454;BME280;22478;51.740;-1.314;2023-06-14T03:13:09;100453.61;;;9.00;100.00
36454;BME280;22478;51.740;-1.314;2023-06-14T03:15:36;100457.12;;;8.30;100.00
36454;BME280;22478;51.740;-1.314;2023-06-14T03:18:04;100464.23;;;6.51;100.00
36454;BME280;22478;51.740;-1.314;2023-06-14T03:20:31;100452.81;;;8.90;100.00
36454;BME280;22478;51.740;-1.314;2023-06-14T03:23:00;100455.74;;;7.79;100.00
36454;BME280;22478;51.740;-1.314;2023-06-14T03:25:27;100466.89;;;4.75;100.00
36454;BME280;22478;51.740;-1.314;2023-06-14T03:27:54;100463.22;;;5.90;100.00
36454;BME280;22478;51.740;-1.314;2023-06-14T03:30:21;100453.53;;;7.61;100.00
36454;BME280;22478;51.740;-1.314;2023-06-14T03:32:49;100453.79;;;6.54;100.00
36454;BME280;22478;51.740;-1.314;2023-06-14T03:35:16;100459.03;;;3.93;100.00
36454;BME280;22478;51.740;-1.314;2023-06-14T03:37:43;100460.73;;;4.10;100.00
36454;BME280;22478;51.740;-1.314;2023-06-14T03:40:12;100456.11;;;5.39;100.00
36454;BME280;22478;51.740;-1.314;2023-06-14T03:42:39;100460.90;;;3.35;100.00
36454;BME280;22478;51.740;-1.314;2023-06-14T03:45:07;100462.86;;;4.50;100.00
36454;BME280;22478;51.740;-1.314;2023-06-14T03:47:34;100466.83;;;4.47;100.00
36454;BME280;22478;51.740;-1.314;2023-06-14T03:50:02;100467.33;;;5.58;100.00
36454;BME280;22478;51.740;-1.314;2023-06-14T03:52:29;100466.31;;;4.90;100.00
36454;BME280;22478;51.740;-1.314;2023-06-14T03:54:56;100472.16;;;4.03;100.00
36454;BME280;22478;51.740;-1.314;2023-06-14T03:57:24;100471.67;;;4.11;100.00
36454;BME280;22478;51.740;-1.314;2023-06-14T03:59:51;100463.46;;;6.19;100.00
36454;BME280;22478;51.740;-1.314;2023-06-14T04:02:19;100474.39;;;4.79;100.00
36454;BME280;22478;51.740;-1.314;2023-06-14T04:04:46;100473.51;;;3.81;100.00
36454;BME280;22478;51.740;-1.314;2023-06-14T04:07:13;100459.77;;;6.71;100.00
36454;BME280;22478;51.740;-1.314;2023-06-14T04:09:41;100469.44;;;4.19;100.00
36454;BME280;22478;51.740;-1.314;2023-06-14T04:12:09;100475.87;;;2.92;100.00
36454;BME280;22478;51.740;-1.314;2023-06-14T04:14:36;100464.88;;;5.87;100.00
36454;BME280;22478;51.740;-1.314;2023-06-14T04:17:04;100462.91;;;6.00;100.00
36454;BME280;22478;51.740;-1.314;2023-06-14T04:19:32;100468.62;;;5.77;100.00
36454;BME280;22478;51.740;-1.314;2023-06-14T04:22:00;100468.25;;;5.40;100.00
36454;BME280;22478;51.740;-1.314;2023-06-14T04:24:27;100476.79;;;4.04;100.00
36454;BME280;22478;51.740;-1.314;2023-06-14T04:26:54;100472.64;;;5.26;100.00
36454;BME280;22478;51.740;-1.314;2023-06-14T04:29:22;100472.32;;;4.86;100.00
36454;BME280;22478;51.740;-1.314;2023-06-14T04:31:49;100475.74;;;3.75;100.00
36454;BME280;22478;51.740;-1.314;2023-06-14T04:34:16;100475.86;;;3.29;100.00
36454;BME280;22478;51.740;-1.314;2023-06-14T04:36:44;100471.61;;;5.25;100.00
36454;BME280;22478;51.740;-1.314;2023-06-14T04:39:12;100477.95;;;4.66;100.00
36454;BME280;22478;51.740;-1.314;2023-06-14T04:41:39;100465.41;;;7.53;100.00
36454;BME280;22478;51.740;-1.314;2023-06-14T04:44:06;100467.61;;;6.40;100.00
36454;BME280;22478;51.740;-1.314;2023-06-14T04:46:34;100476.56;;;5.54;100.00
36454;BME280;22478;51.740;-1.314;2023-06-14T04:49:01;100471.56;;;6.72;100.00
36454;BME280;22478;51.740;-1.314;2023-06-14T04:51:28;100482.87;;;3.95;100.00
36454;BME280;22478;51.740;-1.314;2023-06-14T04:53:56;100485.92;;;4.43;100.00
36454;BME280;22478;51.740;-1.314;2023-06-14T04:56:23;100481.36;;;6.25;100.00
36454;BME280;22478;51.740;-1.314;2023-06-14T04:58:51;100485.92;;;5.37;100.00
36454;BME280;22478;51.740;-1.314;2023-06-14T05:01:18;100492.89;;;4.36;100.00
36454;BME280;22478;51.740;-1.314;2023-06-14T05:03:45;100492.31;;;4.37;100.00
36454;BME280;22478;51.740;-1.314;2023-06-14T05:06:13;100484.44;;;5.39;100.00
36454;BME280;22478;51.740;-1.314;2023-06-14T05:08:40;100485.66;;;5.68;100.00
36454;BME280;22478;51.740;-1.314;2023-06-14T05:11:07;100495.40;;;3.88;100.00
36454;BME280;22478;51.740;-1.314;2023-06-14T05:13:35;100487.06;;;5.88;100.00
36454;BME280;22478;51.740;-1.314;2023-06-14T05:16:03;100487.42;;;4.22;100.00
36454;BME280;22478;51.740;-1.314;2023-06-14T05:18:31;100491.29;;;4.60;100.00
36454;BME280;22478;51.740;-1.314;2023-06-14T05:20:58;100489.52;;;4.89;100.00
36454;BME280;22478;51.740;-1.314;2023-06-14T05:23:25;100495.62;;;4.50;100.00
36454;BME280;22478;51.740;-1.314;2023-06-14T05:25:53;100487.62;;;5.70;100.00
36454;BME280;22478;51.740;-1.314;2023-06-14T05:28:20;100478.14;;;6.43;100.00
36454;BME280;22478;51.740;-1.314;2023-06-14T05:30:47;100482.45;;;6.01;100.00
36454;BME280;22478;51.740;-1.314;2023-06-14T05:33:15;100479.30;;;6.37;100.00
36454;BME280;22478;51.740;-1.314;2023-06-14T05:35:42;100471.95;;;8.36;100.00
36454;BME280;22478;51.740;-1.314;2023-06-14T05:38:10;100476.99;;;6.01;100.00
36454;BME280;22478;51.740;-1.314;2023-06-14T05:40:37;100481.50;;;5.75;100.00
36454;BME280;22478;51.740;-1.314;2023-06-14T05:43:04;100487.03;;;4.42;100.00
36454;BME280;22478;51.740;-1.314;2023-06-14T05:45:31;100485.73;;;5.16;100.00
36454;BME280;22478;51.740;-1.314;2023-06-14T05:47:58;100478.41;;;6.17;100.00
36454;BME280;22478;51.740;-1.314;2023-06-14T05:50:26;100474.64;;;7.02;100.00
36454;BME280;22478;51.740;-1.314;2023-06-14T05:52:53;100472.43;;;7.86;100.00
36454;BME280;22478;51.740;-1.314;2023-06-14T05:55:21;100476.68;;;7.88;100.00
36454;BME280;22478;51.740;-1.314;2023-06-14T05:57:48;100474.38;;;7.58;100.00
36454;BME280;22478;51.740;-1.314;2023-06-14T06:00:16;100481.00;;;7.19;100.00
36454;BME280;22478;51.740;-1.314;2023-06-14T06:02:43;100481.75;;;7.32;100.00
36454;BME280;22478;51.740;-1.314;2023-06-14T06:05:17;100480.23;;;7.82;100.00
36454;BME280;22478;51.740;-1.314;2023-06-14T06:07:44;100483.66;;;7.20;100.00
36454;BME280;22478;51.740;-1.314;2023-06-14T06:10:12;100480.68;;;7.39;100.00
36454;BME280;22478;51.740;-1.314;2023-06-14T06:12:39;100482.36;;;9.41;100.00
36454;BME280;22478;51.740;-1.314;2023-06-14T06:15:06;100481.17;;;8.21;100.00
36454;BME280;22478;51.740;-1.314;2023-06-14T06:17:34;100480.88;;;9.84;100.00
36454;BME280;22478;51.740;-1.314;2023-06-14T06:20:07;100479.90;;;10.34;100.00
36454;BME280;22478;51.740;-1.314;2023-06-14T06:22:34;100486.08;;;8.80;100.00
36454;BME280;22478;51.740;-1.314;2023-06-14T06:25:01;100487.44;;;8.69;100.00
36454;BME280;22478;51.740;-1.314;2023-06-14T06:27:28;100487.81;;;8.80;100.00
36454;BME280;22478;51.740;-1.314;2023-06-14T06:29:55;100492.29;;;8.84;100.00
36454;BME280;22478;51.740;-1.314;2023-06-14T06:32:23;100495.57;;;8.36;100.00
36454;BME280;22478;51.740;-1.314;2023-06-14T06:34:50;100496.67;;;8.66;100.00
36454;BME280;22478;51.740;-1.314;2023-06-14T06:37:17;100495.05;;;7.33;100.00
36454;BME280;22478;51.740;-1.314;2023-06-14T06:39:44;100497.23;;;9.35;100.00
36454;BME280;22478;51.740;-1.314;2023-06-14T06:42:12;100501.80;;;7.56;100.00
36454;BME280;22478;51.740;-1.314;2023-06-14T06:44:39;100503.55;;;8.68;100.00
36454;BME280;22478;51.740;-1.314;2023-06-14T06:47:07;100504.58;;;8.27;100.00
36454;BME280;22478;51.740;-1.314;2023-06-14T06:49:39;100510.62;;;6.42;100.00
36454;BME280;22478;51.740;-1.314;2023-06-14T06:52:07;100502.16;;;7.57;100.00
36454;BME280;22478;51.740;-1.314;2023-06-14T06:54:34;100501.12;;;8.83;100.00
36454;BME280;22478;51.740;-1.314;2023-06-14T06:57:02;100504.78;;;8.31;100.00
36454;BME280;22478;51.740;-1.314;2023-06-14T06:59:29;100509.42;;;7.23;100.00
36454;BME280;22478;51.740;-1.314;2023-06-14T07:01:56;100504.81;;;8.69;100.00
36454;BME280;22478;51.740;-1.314;2023-06-14T07:04:28;100510.10;;;8.00;100.00
36454;BME280;22478;51.740;-1.314;2023-06-14T07:06:55;100511.08;;;9.39;100.00
36454;BME280;22478;51.740;-1.314;2023-06-14T07:09:22;100512.24;;;8.39;100.00
36454;BME280;22478;51.740;-1.314;2023-06-14T07:11:50;100514.26;;;8.34;100.00
36454;BME280;22478;51.740;-1.314;2023-06-14T07:14:17;100515.79;;;9.87;100.00
36454;BME280;22478;51.740;-1.314;2023-06-14T07:16:45;100511.78;;;7.67;100.00
36454;BME280;22478;51.740;-1.314;2023-06-14T07:19:13;100504.98;;;10.45;100.00
36454;BME280;22478;51.740;-1.314;2023-06-14T07:21:40;100506.73;;;8.44;100.00
36454;BME280;22478;51.740;-1.314;2023-06-14T07:24:07;100494.65;;;10.80;100.00
36454;BME280;22478;51.740;-1.314;2023-06-14T07:26:35;100503.38;;;10.20;100.00
36454;BME280;22478;51.740;-1.314;2023-06-14T07:29:02;100512.21;;;10.39;100.00
36454;BME280;22478;51.740;-1.314;2023-06-14T07:31:34;100516.14;;;8.88;100.00
36454;BME280;22478;51.740;-1.314;2023-06-14T07:34:01;100507.56;;;11.13;100.00
36454;BME280;22478;51.740;-1.314;2023-06-14T07:36:29;100518.36;;;9.16;100.00
36454;BME280;22478;51.740;-1.314;2023-06-14T07:38:55;100515.93;;;9.23;100.00
36454;BME280;22478;51.740;-1.314;2023-06-14T07:41:23;100520.28;;;9.09;100.00
36454;BME280;22478;51.740;-1.314;2023-06-14T07:43:50;100508.30;;;10.96;100.00
36454;BME280;22478;51.740;-1.314;2023-06-14T07:46:22;100516.57;;;10.18;100.00
36454;BME280;22478;51.740;-1.314;2023-06-14T07:48:55;100508.83;;;11.98;100.00
36454;BME280;22478;51.740;-1.314;2023-06-14T07:51:22;100517.95;;;9.34;100.00
36454;BME280;22478;51.740;-1.314;2023-06-14T07:53:49;100511.43;;;12.20;100.00
36454;BME280;22478;51.740;-1.314;2023-06-14T07:56:16;100512.57;;;10.37;100.00
36454;BME280;22478;51.740;-1.314;2023-06-14T07:58:43;100511.41;;;11.45;100.00
36454;BME280;22478;51.740;-1.314;2023-06-14T08:01:10;100515.72;;;11.28;100.00
36454;BME280;22478;51.740;-1.314;2023-06-14T08:03:42;100511.16;;;12.13;100.00
36454;BME280;22478;51.740;-1.314;2023-06-14T08:06:09;100512.70;;;11.98;100.00
36454;BME280;22478;51.740;-1.314;2023-06-14T08:08:37;100510.75;;;12.39;100.00
36454;BME280;22478;51.740;-1.314;2023-06-14T08:11:04;100509.77;;;11.79;100.00
36454;BME280;22478;51.740;-1.314;2023-06-14T08:13:31;100516.28;;;11.34;100.00
36454;BME280;22478;51.740;-1.314;2023-06-14T08:15:58;100510.69;;;12.05;100.00
36454;BME280;22478;51.740;-1.314;2023-06-14T08:18:25;100511.78;;;13.77;100.00
36454;BME280;22478;51.740;-1.314;2023-06-14T08:20:52;100509.68;;;14.75;100.00
36454;BME280;22478;51.740;-1.314;2023-06-14T08:23:19;100506.91;;;16.15;99.09
36454;BME280;22478;51.740;-1.314;2023-06-14T08:25:46;100515.67;;;12.66;100.00
36454;BME280;22478;51.740;-1.314;2023-06-14T08:28:13;100508.98;;;16.75;90.02
36454;BME280;22478;51.740;-1.314;2023-06-14T08:30:42;100509.86;;;16.08;88.70
36454;BME280;22478;51.740;-1.314;2023-06-14T08:33:09;100507.40;;;19.03;78.66
36454;BME280;22478;51.740;-1.314;2023-06-14T08:35:36;100508.14;;;15.99;84.63
36454;BME280;22478;51.740;-1.314;2023-06-14T08:38:03;100512.98;;;14.84;89.95
36454;BME280;22478;51.740;-1.314;2023-06-14T08:40:30;100503.73;;;19.75;71.22
36454;BME280;22478;51.740;-1.314;2023-06-14T08:42:58;100500.77;;;20.80;66.86
36454;BME280;22478;51.740;-1.314;2023-06-14T08:45:26;100497.60;;;20.02;66.07
36454;BME280;22478;51.740;-1.314;2023-06-14T08:47:53;100503.59;;;17.37;76.55
36454;BME280;22478;51.740;-1.314;2023-06-14T08:50:21;100505.68;;;16.65;81.83
36454;BME280;22478;51.740;-1.314;2023-06-14T08:52:51;100503.02;;;18.57;74.02
36454;BME280;22478;51.740;-1.314;2023-06-14T08:55:23;100494.71;;;19.70;68.51
36454;BME280;22478;51.740;-1.314;2023-06-14T08:57:50;100492.75;;;18.96;66.30
36454;BME280;22478;51.740;-1.314;2023-06-14T09:00:19;100489.11;;;23.43;56.13
36454;BME280;22478;51.740;-1.314;2023-06-14T09:02:47;100489.47;;;18.59;66.45
36454;BME280;22478;51.740;-1.314;2023-06-14T09:05:15;100489.05;;;22.02;58.67
36454;BME280;22478;51.740;-1.314;2023-06-14T09:07:42;100485.42;;;19.55;65.83
36454;BME280;22478;51.740;-1.314;2023-06-14T09:10:11;100490.91;;;20.04;62.50
36454;BME280;22478;51.740;-1.314;2023-06-14T09:12:39;100494.59;;;18.65;67.96
36454;BME280;22478;51.740;-1.314;2023-06-14T09:15:07;100483.47;;;22.31;60.89
36454;BME280;22478;51.740;-1.314;2023-06-14T09:17:34;100484.24;;;23.24;53.66
36454;BME280;22478;51.740;-1.314;2023-06-14T09:20:02;100488.16;;;21.31;58.59
36454;BME280;22478;51.740;-1.314;2023-06-14T09:22:30;100485.70;;;23.17;53.57
36454;BME280;22478;51.740;-1.314;2023-06-14T09:24:56;100489.78;;;23.42;54.70
36454;BME280;22478;51.740;-1.314;2023-06-14T09:27:25;100488.83;;;21.39;58.48
36454;BME280;22478;51.740;-1.314;2023-06-14T09:29:53;100489.45;;;21.61;59.96
36454;BME280;22478;51.740;-1.314;2023-06-14T09:32:21;100490.77;;;22.19;55.99
36454;BME280;22478;51.740;-1.314;2023-06-14T09:34:48;100491.53;;;19.74;60.62
36454;BME280;22478;51.740;-1.314;2023-06-14T09:37:28;100482.36;;;25.23;49.37
36454;BME280;22478;51.740;-1.314;2023-06-14T09:39:56;100497.06;;;19.55;64.17
36454;BME280;22478;51.740;-1.314;2023-06-14T09:42:23;100487.53;;;23.97;53.80
36454;BME280;22478;51.740;-1.314;2023-06-14T09:44:51;100483.43;;;25.31;49.02
36454;BME280;22478;51.740;-1.314;2023-06-14T09:47:19;100484.23;;;25.96;45.93
36454;BME280;22478;51.740;-1.314;2023-06-14T09:49:46;100484.16;;;23.60;49.50
36454;BME280;22478;51.740;-1.314;2023-06-14T09:52:15;100481.74;;;23.29;48.11
36454;BME280;22478;51.740;-1.314;2023-06-14T09:54:44;100482.28;;;23.23;50.89
36454;BME280;22478;51.740;-1.314;2023-06-14T09:57:12;100485.17;;;23.09;48.00
36454;BME280;22478;51.740;-1.314;2023-06-14T09:59:46;100489.48;;;20.78;54.47
36454;BME280;22478;51.740;-1.314;2023-06-14T10:02:22;100477.04;;;24.62;47.63
36454;BME280;22478;51.740;-1.314;2023-06-14T10:04:58;100486.08;;;22.68;51.76
36454;BME280;22478;51.740;-1.314;2023-06-14T10:07:26;100480.79;;;25.17;47.42
36454;BME280;22478;51.740;-1.314;2023-06-14T10:09:54;100479.68;;;24.31;47.48
36454;BME280;22478;51.740;-1.314;2023-06-14T10:12:22;100478.47;;;24.13;47.12
36454;BME280;22478;51.740;-1.314;2023-06-14T10:14:50;100477.29;;;28.19;42.71
36454;BME280;22478;51.740;-1.314;2023-06-14T10:17:25;100482.67;;;24.83;46.26
36454;BME280;22478;51.740;-1.314;2023-06-14T10:20:17;100479.44;;;28.27;39.30
36454;BME280;22478;51.740;-1.314;2023-06-14T10:22:50;100472.76;;;28.53;38.85
36454;BME280;22478;51.740;-1.314;2023-06-14T10:25:28;100486.45;;;23.48;44.88
36454;BME280;22478;51.740;-1.314;2023-06-14T10:28:29;100489.00;;;22.91;49.18
36454;BME280;22478;51.740;-1.314;2023-06-14T10:31:04;100486.06;;;23.45;49.28
36454;BME280;22478;51.740;-1.314;2023-06-14T10:33:40;100487.86;;;26.00;42.32
36454;BME280;22478;51.740;-1.314;2023-06-14T10:36:31;100480.98;;;28.06;40.39
36454;BME280;22478;51.740;-1.314;2023-06-14T10:39:00;100482.46;;;25.07;42.13
36454;BME280;22478;51.740;-1.314;2023-06-14T10:41:29;100486.58;;;23.77;45.61
36454;BME280;22478;51.740;-1.314;2023-06-14T10:45:01;100484.06;;;24.20;46.67
36454;BME280;22478;51.740;-1.314;2023-06-14T10:47:29;100478.27;;;28.89;38.62
36454;BME280;22478;51.740;-1.314;2023-06-14T10:50:04;100479.01;;;29.09;37.63
36454;BME280;22478;51.740;-1.314;2023-06-14T10:52:33;100481.24;;;24.32;43.20
36454;BME280;22478;51.740;-1.314;2023-06-14T10:55:02;100483.45;;;26.29;45.51
36454;BME280;22478;51.740;-1.314;2023-06-14T10:57:30;100483.72;;;27.55;41.96
36454;BME280;22478;51.740;-1.314;2023-06-14T10:59:58;100487.70;;;24.04;46.24
36454;BME280;22478;51.740;-1.314;2023-06-14T11:02:48;100475.32;;;26.09;42.17
36454;BME280;22478;51.740;-1.314;2023-06-14T11:05:24;100477.83;;;26.78;37.74
36454;BME280;22478;51.740;-1.314;2023-06-14T11:08:10;100476.11;;;26.48;39.72
36454;BME280;22478;51.740;-1.314;2023-06-14T11:10:45;100465.82;;;27.87;37.21
36454;BME280;22478;51.740;-1.314;2023-06-14T11:13:12;100467.26;;;26.51;39.76
36454;BME280;22478;51.740;-1.314;2023-06-14T11:15:47;100464.49;;;25.99;40.13
36454;BME280;22478;51.740;-1.314;2023-06-14T11:18:14;100467.16;;;24.09;38.27
36454;BME280;22478;51.740;-1.314;2023-06-14T11:20:42;100454.29;;;28.15;35.07
36454;BME280;22478;51.740;-1.314;2023-06-14T11:23:09;100451.40;;;29.07;34.55
36454;BME280;22478;51.740;-1.314;2023-06-14T11:25:36;100461.22;;;25.95;36.96
36454;BME280;22478;51.740;-1.314;2023-06-14T11:28:04;100456.33;;;29.18;34.17
36454;BME280;22478;51.740;-1.314;2023-06-14T11:30:31;100458.18;;;29.55;33.89
36454;BME280;22478;51.740;-1.314;2023-06-14T11:32:59;100449.47;;;27.80;35.50
36454;BME280;22478;51.740;-1.314;2023-06-14T11:35:26;100447.28;;;27.16;33.88
36454;BME280;22478;51.740;-1.314;2023-06-14T11:37:54;100446.19;;;29.78;33.17
36454;BME280;22478;51.740;-1.314;2023-06-14T11:40:23;100456.86;;;25.19;37.13
36454;BME280;22478;51.740;-1.314;2023-06-14T11:42:58;100451.48;;;29.33;34.37
36454;BME280;22478;51.740;-1.314;2023-06-14T11:45:25;100449.75;;;26.57;36.97
36454;BME280;22478;51.740;-1.314;2023-06-14T11:47:54;100443.89;;;28.46;35.58
36454;BME280;22478;51.740;-1.314;2023-06-14T11:50:22;100437.52;;;30.03;34.51
36454;BME280;22478;51.740;-1.314;2023-06-14T11:52:53;100449.66;;;26.45;37.79
36454;BME280;22478;51.740;-1.314;2023-06-14T11:55:21;100445.89;;;23.22;41.55
36454;BME280;22478;51.740;-1.314;2023-06-14T11:57:49;100447.95;;;25.93;39.88
36454;BME280;22478;51.740;-1.314;2023-06-14T12:00:18;100447.10;;;23.67;42.29
36454;BME280;22478;51.740;-1.314;2023-06-14T12:02:52;100444.64;;;24.97;40.35
36454;BME280;22478;51.740;-1.314;2023-06-14T12:05:21;100444.52;;;25.83;40.64
36454;BME280;22478;51.740;-1.314;2023-06-14T12:07:48;100441.97;;;24.03;44.05
36454;BME280;22478;51.740;-1.314;2023-06-14T12:10:16;100437.74;;;25.02;43.67
36454;BME280;22478;51.740;-1.314;2023-06-14T12:12:43;100436.80;;;24.35;44.76
36454;BME280;22478;51.740;-1.314;2023-06-14T12:15:11;100431.72;;;26.35;43.25
36454;BME280;22478;51.740;-1.314;2023-06-14T12:17:39;100431.69;;;25.36;43.70
36454;BME280;22478;51.740;-1.314;2023-06-14T12:20:08;100419.66;;;27.71;39.01
36454;BME280;22478;51.740;-1.314;2023-06-14T12:22:36;100414.17;;;30.77;35.29
36454;BME280;22478;51.740;-1.314;2023-06-14T12:25:04;100417.40;;;28.85;36.21
36454;BME280;22478;51.740;-1.314;2023-06-14T12:27:31;100418.81;;;28.66;35.85
36454;BME280;22478;51.740;-1.314;2023-06-14T12:30:00;100431.33;;;26.14;38.14
36454;BME280;22478;51.740;-1.314;2023-06-14T12:32:28;100420.65;;;27.71;38.53
36454;BME280;22478;51.740;-1.314;2023-06-14T12:34:55;100422.01;;;27.75;39.39
36454;BME280;22478;51.740;-1.314;2023-06-14T12:37:22;100421.92;;;27.49;35.96
36454;BME280;22478;51.740;-1.314;2023-06-14T12:39:49;100423.11;;;29.67;36.37
36454;BME280;22478;51.740;-1.314;2023-06-14T12:42:17;100421.20;;;27.57;34.06
36454;BME280;22478;51.740;-1.314;2023-06-14T12:44:44;100427.79;;;25.02;35.99
36454;BME280;22478;51.740;-1.314;2023-06-14T12:47:11;100419.42;;;28.59;33.97